createdAt,value
2019-04-25T00:02:03.105Z,57.14
2019-04-25T00:04:51.519Z,57.59
2019-04-25T00:07:38.773Z,58.59
2019-04-25T00:10:26.435Z,58.86
2019-04-25T00:13:14.015Z,58.67
2019-04-25T00:16:01.916Z,58.96
2019-04-25T00:18:49.582Z,58.10
2019-04-25T00:21:44.448Z,58.35
2019-04-25T00:24:39.735Z,59.29
2019-04-25T00:27:27.785Z,59.14
2019-04-25T00:30:15.320Z,58.71
2019-04-25T00:33:02.912Z,58.18
2019-04-25T00:35:51.679Z,58.24
2019-04-25T00:38:39.601Z,58.28
2019-04-25T00:41:27.144Z,58.63
2019-04-25T00:44:14.706Z,59.04
2019-04-25T00:47:02.599Z,58.98
2019-04-25T00:49:50.170Z,58.88
2019-04-25T00:52:38.209Z,58.56
2019-04-25T00:55:28.812Z,58.48
2019-04-25T00:58:22.811Z,58.48
2019-04-25T01:01:24.128Z,58.93
2019-04-25T01:04:12.258Z,59.49
2019-04-25T01:07:01.394Z,59.06
2019-04-25T01:09:49.909Z,59.22
2019-04-25T01:12:37.876Z,59.35
2019-04-25T01:15:25.462Z,59.26
2019-04-25T01:18:12.725Z,59.32
2019-04-25T01:21:00.224Z,59.81
2019-04-25T01:23:47.965Z,60.04
2019-04-25T01:26:35.676Z,59.43
2019-04-25T01:29:23.515Z,58.96
2019-04-25T01:32:13.963Z,59.49
2019-04-25T01:35:08.570Z,59.28
2019-04-25T01:38:21.631Z,59.88
2019-04-25T01:41:26.570Z,59.86
2019-04-25T01:44:21.694Z,59.47
2019-04-25T01:47:08.813Z,60.05
2019-04-25T01:49:56.867Z,59.53
2019-04-25T01:52:44.565Z,59.74
2019-04-25T01:55:33.538Z,60.40
2019-04-25T01:58:21.469Z,60.52
2019-04-25T02:01:09.092Z,60.43
2019-04-25T02:03:56.992Z,60.29
2019-04-25T02:06:44.745Z,60.84
2019-04-25T02:09:33.689Z,61.19
2019-04-25T02:12:29.350Z,60.06
2019-04-25T02:15:18.984Z,60.11
2019-04-25T02:18:06.374Z,60.25
2019-04-25T02:20:56.595Z,60.72
2019-04-25T02:23:44.223Z,61.03
2019-04-25T02:26:31.966Z,61.01
2019-04-25T02:29:19.718Z,59.67
2019-04-25T02:32:09.070Z,59.60
2019-04-25T02:35:00.541Z,59.47
2019-04-25T02:37:45.631Z,60.02
2019-04-25T02:40:33.854Z,60.08
2019-04-25T02:43:23.777Z,59.89
2019-04-25T02:46:30.959Z,60.15
2019-04-25T02:49:39.718Z,60.63
2019-04-25T02:52:36.966Z,60.63
2019-04-25T02:55:31.888Z,59.89
2019-04-25T02:58:14.193Z,60.81
2019-04-25T03:01:14.320Z,60.90
2019-04-25T03:03:54.600Z,60.36
2019-04-25T03:06:44.892Z,60.59
2019-04-25T03:09:31.574Z,60.48
2019-04-25T03:12:32.416Z,61.01
2019-04-25T03:15:10.255Z,60.69
2019-04-25T03:17:58.702Z,60.95
2019-04-25T03:20:55.455Z,60.22
2019-04-25T03:23:46.164Z,61.47
2019-04-25T03:26:39.870Z,61.38
2019-04-25T03:29:21.827Z,61.29
2019-04-25T03:32:13.697Z,61.18
2019-04-25T03:34:58.817Z,60.64
2019-04-25T03:37:46.330Z,60.74
2019-04-25T03:40:34.023Z,60.51
2019-04-25T03:43:23.266Z,60.35
2019-04-25T03:46:10.989Z,59.76
2019-04-25T03:48:58.578Z,59.88
2019-04-25T03:51:46.463Z,60.07
2019-04-25T03:54:33.794Z,60.15
2019-04-25T03:57:20.889Z,59.79
2019-04-25T04:00:08.810Z,58.90
2019-04-25T04:02:56.101Z,59.19
2019-04-25T04:05:44.098Z,59.81
2019-04-25T04:08:31.383Z,60.16
2019-04-25T04:11:19.452Z,59.67
2019-04-25T04:14:07.099Z,60.04
2019-04-25T04:17:29.344Z,59.85
2019-04-25T04:20:36.647Z,60.19
2019-04-25T04:23:36.634Z,60.28
2019-04-25T04:26:24.429Z,59.74
2019-04-25T04:29:13.578Z,59.88
2019-04-25T04:32:01.210Z,59.12
2019-04-25T04:34:48.514Z,59.47
2019-04-25T04:37:36.050Z,59.54
2019-04-25T04:40:24.282Z,60.14
2019-04-25T04:43:11.766Z,61.02
2019-04-25T04:45:59.124Z,60.18
2019-04-25T04:48:46.853Z,60.31
2019-04-25T04:51:34.245Z,59.27
2019-04-25T04:54:23.051Z,59.21
2019-04-25T04:57:23.169Z,59.98
2019-04-25T04:59:59.651Z,59.83
2019-04-25T05:02:59.195Z,59.62
2019-04-25T05:06:01.813Z,59.64
2019-04-25T05:08:53.243Z,59.71
2019-04-25T05:11:41.392Z,59.80
2019-04-25T05:14:29.347Z,57.95
2019-04-25T05:17:17.622Z,55.13
2019-04-25T05:20:05.579Z,52.48
2019-04-25T05:22:54.964Z,50.43
2019-04-25T05:25:44.233Z,48.42
2019-04-25T05:28:33.331Z,46.53
2019-04-25T05:31:36.277Z,44.66
2019-04-25T05:34:25.631Z,42.52
2019-04-25T05:37:14.382Z,41.04
2019-04-25T05:40:03.452Z,40.40
2019-04-25T05:42:58.016Z,39.74
2019-04-25T05:45:45.957Z,38.24
2019-04-25T05:48:34.052Z,37.16
2019-04-25T05:51:23.649Z,36.75
2019-04-25T05:54:11.423Z,35.30
2019-04-25T05:56:59.075Z,36.63
2019-04-25T05:59:46.829Z,38.07
2019-04-25T06:02:34.665Z,38.87
2019-04-25T06:05:23.423Z,40.44
2019-04-25T06:08:17.484Z,41.50
2019-04-25T06:11:23.924Z,42.83
2019-04-25T06:14:13.625Z,41.06
2019-04-25T06:17:04.537Z,38.32
2019-04-25T06:19:53.659Z,35.79
2019-04-25T06:22:53.482Z,35.12
2019-04-25T06:25:43.795Z,35.91
2019-04-25T06:28:34.564Z,39.48
2019-04-25T06:31:21.887Z,39.48
2019-04-25T06:34:09.441Z,39.64
2019-04-25T06:36:56.930Z,41.85
2019-04-25T06:39:44.760Z,43.07
2019-04-25T06:42:34.558Z,44.24
2019-04-25T06:45:34.571Z,42.62
2019-04-25T06:48:41.169Z,38.01
2019-04-25T06:51:46.923Z,35.37
2019-04-25T06:54:35.259Z,32.98
2019-04-25T06:57:24.434Z,31.27
2019-04-25T07:00:14.876Z,31.18
2019-04-25T07:03:04.281Z,29.41
2019-04-25T07:05:53.530Z,27.94
2019-04-25T07:08:41.214Z,27.01
2019-04-25T07:11:30.392Z,26.18
2019-04-25T07:14:18.104Z,26.24
2019-04-25T07:17:06.014Z,26.33
2019-04-25T07:19:54.180Z,26.53
2019-04-25T07:22:41.784Z,27.45
2019-04-25T07:25:31.980Z,27.75
2019-04-25T07:28:50.702Z,28.38
2019-04-25T07:32:15.741Z,27.87
2019-04-25T07:35:03.738Z,26.02
2019-04-25T07:37:51.352Z,26.41
2019-04-25T07:40:40.301Z,26.17
2019-04-25T07:43:28.154Z,26.58
2019-04-25T07:46:15.634Z,25.98
2019-04-25T07:49:03.439Z,26.32
2019-04-25T07:51:50.669Z,26.49
2019-04-25T07:54:38.642Z,27.12
2019-04-25T07:57:26.799Z,27.41
2019-04-25T08:00:15.912Z,27.58
2019-04-25T08:03:04.040Z,27.67
2019-04-25T08:05:51.389Z,27.11
2019-04-25T08:08:38.914Z,27.93
2019-04-25T08:11:26.291Z,27.89
2019-04-25T08:14:35.753Z,27.99
2019-04-25T08:17:41.081Z,28.51
2019-04-25T08:20:29.263Z,29.36
2019-04-25T08:23:17.082Z,28.78
2019-04-25T08:26:04.874Z,28.52
2019-04-25T08:28:57.480Z,29.10
2019-04-25T08:31:45.321Z,29.38
2019-04-25T08:34:34.813Z,28.99
2019-04-25T08:37:24.084Z,29.91
2019-04-25T08:40:13.584Z,29.74
2019-04-25T08:43:01.103Z,29.91
2019-04-25T08:45:48.894Z,30.29
2019-04-25T08:48:55.593Z,30.74
2019-04-25T08:51:44.460Z,30.69
2019-04-25T08:54:41.479Z,30.42
2019-04-25T08:57:45.560Z,30.88
2019-04-25T09:00:59.338Z,31.52
2019-04-25T09:03:49.354Z,32.39
2019-04-25T09:06:38.607Z,32.45
2019-04-25T09:09:26.433Z,32.48
2019-04-25T09:12:14.499Z,31.39
2019-04-25T09:15:04.079Z,32.11
2019-04-25T09:17:54.297Z,30.87
2019-04-25T09:20:43.047Z,31.65
2019-04-25T09:23:30.690Z,31.31
2019-04-25T09:26:18.206Z,30.58
2019-04-25T09:29:16.903Z,30.52
2019-04-25T09:31:55.071Z,30.83
2019-04-25T09:34:43.727Z,30.61
2019-04-25T09:37:31.589Z,29.74
2019-04-25T09:40:19.520Z,28.53
2019-04-25T09:43:07.120Z,27.88
2019-04-25T09:46:06.466Z,25.35
2019-04-25T09:49:04.152Z,25.85
2019-04-25T09:52:13.706Z,24.31
2019-04-25T09:55:22.289Z,24.85
2019-04-25T09:58:16.271Z,23.45
2019-04-25T10:01:09.377Z,23.50
2019-04-25T10:03:56.785Z,24.29
2019-04-25T10:06:45.043Z,22.66
2019-04-25T10:09:33.834Z,23.11
2019-04-25T10:12:23.131Z,23.26
2019-04-25T10:15:25.738Z,22.33
2019-04-25T10:18:14.476Z,21.49
2019-04-25T10:21:04.255Z,21.72
2019-04-25T10:23:53.467Z,21.21
2019-04-25T10:26:41.594Z,22.14
2019-04-25T10:29:39.348Z,21.68
2019-04-25T10:32:18.682Z,20.94
2019-04-25T10:35:07.730Z,21.91
2019-04-25T10:37:55.789Z,22.39
2019-04-25T10:40:46.138Z,21.83
2019-04-25T10:43:34.661Z,21.34
2019-04-25T10:46:24.315Z,21.56
2019-04-25T10:49:11.836Z,21.56
2019-04-25T10:51:59.329Z,21.39
2019-04-25T10:54:47.896Z,20.17
2019-04-25T10:57:35.937Z,21.23
2019-04-25T11:00:30.875Z,22.00
2019-04-25T11:03:56.013Z,21.32
2019-04-25T11:06:45.473Z,20.73
2019-04-25T11:09:34.277Z,20.33
2019-04-25T11:12:23.483Z,21.14
2019-04-25T11:15:11.610Z,21.06
2019-04-25T11:17:59.216Z,21.65
2019-04-25T11:20:46.641Z,21.46
2019-04-25T11:23:35.052Z,20.81
2019-04-25T11:26:22.849Z,21.87
2019-04-25T11:29:10.816Z,20.45
2019-04-25T11:31:58.233Z,21.17
2019-04-25T11:34:47.224Z,21.67
2019-04-25T11:37:35.377Z,21.24
2019-04-25T11:40:48.125Z,20.87
2019-04-25T11:43:35.738Z,20.79
2019-04-25T11:46:24.206Z,20.68
2019-04-25T11:49:13.129Z,20.82
2019-04-25T11:54:30.425Z,21.23
2019-04-25T11:57:17.665Z,21.28
2019-04-25T12:00:06.366Z,21.13
2019-04-25T12:02:54.954Z,21.07
2019-04-25T12:05:45.580Z,21.78
2019-04-25T12:08:33.485Z,21.03
2019-04-25T12:11:20.967Z,20.92
2019-04-25T12:14:08.756Z,21.53
2019-04-25T12:16:56.338Z,21.71
2019-04-25T12:19:44.226Z,21.70
2019-04-25T12:22:34.324Z,21.87
2019-04-25T12:25:21.791Z,21.54
2019-04-25T12:28:09.628Z,21.85
2019-04-25T12:30:57.602Z,21.75
2019-04-25T12:33:47.642Z,21.85
2019-04-25T12:36:34.329Z,22.00
2019-04-25T12:39:24.151Z,22.13
2019-04-25T12:42:11.518Z,22.18
2019-04-25T12:45:21.101Z,22.23
2019-04-25T12:48:14.517Z,21.78
2019-04-25T12:51:03.231Z,22.12
2019-04-25T12:53:51.402Z,21.75
2019-04-25T12:56:38.834Z,22.62
2019-04-25T12:59:26.687Z,22.20
2019-04-25T13:02:14.744Z,21.90
2019-04-25T13:05:05.515Z,22.64
2019-04-25T13:07:55.989Z,22.41
2019-04-25T13:10:41.550Z,22.29
2019-04-25T13:13:28.892Z,21.79
2019-04-25T13:16:16.356Z,22.18
2019-04-25T13:19:12.678Z,22.17
2019-04-25T13:21:54.393Z,22.30
2019-04-25T13:24:41.914Z,22.25
2019-04-25T13:27:35.426Z,22.32
2019-04-25T13:31:01.534Z,22.37
2019-04-25T13:34:04.624Z,22.36
2019-04-25T13:36:52.171Z,22.60
2019-04-25T13:39:39.888Z,22.58
2019-04-25T13:42:27.577Z,23.16
2019-04-25T13:45:15.989Z,22.38
2019-04-25T13:48:04.970Z,22.87
2019-04-25T13:50:54.027Z,22.98
2019-04-25T13:53:44.856Z,22.84
2019-04-25T13:56:38.993Z,22.93
2019-04-25T13:59:23.484Z,23.04
2019-04-25T14:02:11.565Z,23.23
2019-04-25T14:04:59.068Z,23.53
2019-04-25T14:07:46.709Z,23.42
2019-04-25T14:10:34.674Z,23.23
2019-04-25T14:13:25.125Z,23.26
2019-04-25T14:16:25.371Z,23.51
2019-04-25T14:19:29.540Z,23.25
2019-04-25T14:22:17.725Z,23.53
2019-04-25T14:25:06.804Z,23.58
2019-04-25T14:27:54.506Z,23.88
2019-04-25T14:30:43.460Z,23.69
2019-04-25T14:33:31.437Z,23.80
2019-04-25T14:36:19.209Z,24.11
2019-04-25T14:39:09.723Z,24.04
2019-04-25T14:41:57.338Z,23.96
2019-04-25T14:44:45.887Z,24.26
2019-04-25T14:47:34.936Z,23.59
2019-04-25T14:50:23.242Z,23.95
2019-04-25T14:53:11.858Z,24.27
2019-04-25T14:56:11.586Z,23.99
2019-04-25T14:58:59.217Z,24.35
2019-04-25T15:01:47.413Z,23.65
2019-04-25T15:04:35.308Z,24.15
2019-04-25T15:07:24.427Z,23.99
2019-04-25T15:10:12.369Z,24.42
2019-04-25T15:13:00.350Z,23.99
2019-04-25T15:15:49.875Z,23.62
2019-04-25T15:18:46.567Z,23.78
2019-04-25T15:21:28.140Z,23.57
2019-04-25T15:24:18.785Z,24.27
2019-04-25T15:27:06.448Z,23.89
2019-04-25T15:29:53.997Z,23.87
2019-04-25T15:32:41.458Z,24.51
2019-04-25T15:35:35.192Z,24.16
2019-04-25T15:38:29.779Z,23.76
2019-04-25T15:41:35.978Z,24.12
2019-04-25T15:44:47.545Z,24.33
2019-04-25T15:47:36.326Z,24.52
2019-04-25T15:50:23.798Z,23.96
2019-04-25T15:53:11.536Z,24.24
2019-04-25T15:55:59.130Z,24.65
2019-04-25T15:58:46.245Z,23.67
2019-04-25T16:01:34.593Z,23.54
2019-04-25T16:04:22.100Z,23.70
2019-04-25T16:07:09.889Z,23.37
2019-04-25T16:09:57.387Z,23.41
2019-04-25T16:12:45.003Z,23.21
2019-04-25T16:15:33.211Z,23.29
2019-04-25T16:18:21.153Z,23.82
2019-04-25T16:21:08.828Z,23.90
2019-04-25T16:23:56.568Z,24.31
2019-04-25T16:26:44.208Z,23.91
2019-04-25T16:29:31.809Z,24.13
2019-04-25T16:32:21.895Z,23.70
2019-04-25T16:35:12.658Z,24.29
2019-04-25T16:38:02.554Z,24.43
2019-04-25T16:40:50.001Z,23.97
2019-04-25T16:43:44.375Z,24.54
2019-04-25T16:46:32.313Z,24.05
2019-04-25T16:49:21.469Z,23.77
2019-04-25T16:52:10.599Z,24.50
2019-04-25T16:54:58.221Z,23.93
2019-04-25T16:57:45.785Z,24.46
2019-04-25T17:00:42.948Z,24.50
2019-04-25T17:03:31.460Z,24.49
2019-04-25T17:06:18.963Z,24.64
2019-04-25T17:09:07.223Z,24.87
2019-04-25T17:11:56.920Z,24.90
2019-04-25T17:15:06.396Z,25.08
2019-04-25T17:18:19.321Z,25.22
2019-04-25T17:21:11.610Z,25.25
2019-04-25T17:23:58.166Z,25.51
2019-04-25T17:26:46.020Z,26.04
2019-04-25T17:29:34.595Z,25.93
2019-04-25T17:32:30.688Z,25.74
2019-04-25T17:35:29.359Z,25.76
2019-04-25T17:38:21.137Z,25.79
2019-04-25T17:41:08.377Z,26.12
2019-04-25T17:43:56.120Z,26.28
2019-04-25T17:46:44.086Z,26.32
2019-04-25T17:49:32.864Z,26.41
2019-04-25T17:52:20.417Z,26.33
2019-04-25T17:55:08.547Z,26.43
2019-04-25T17:57:56.051Z,26.79
2019-04-25T18:00:45.490Z,27.09
2019-04-25T18:03:37.247Z,27.10
2019-04-25T18:06:24.977Z,27.11
2019-04-25T18:09:12.888Z,27.23
2019-04-25T18:12:00.602Z,27.18
2019-04-25T18:14:48.639Z,27.60
2019-04-25T18:17:36.195Z,29.94
2019-04-25T18:20:25.788Z,32.49
2019-04-25T18:23:23.933Z,34.96
2019-04-25T18:26:18.970Z,36.46
2019-04-25T18:29:09.812Z,37.93
2019-04-25T18:31:57.788Z,38.81
2019-04-25T18:34:51.624Z,40.43
2019-04-25T18:38:01.331Z,41.52
2019-04-25T18:41:08.109Z,42.43
2019-04-25T18:43:57.664Z,43.26
2019-04-25T18:46:47.275Z,44.95
2019-04-25T18:49:37.204Z,45.71
2019-04-25T18:52:50.815Z,47.08
2019-04-25T18:56:03.854Z,47.60
2019-04-25T18:59:10.613Z,48.47
2019-04-25T19:02:18.540Z,48.95
2019-04-25T19:05:28.519Z,50.19
2019-04-25T19:08:15.952Z,50.32
2019-04-25T19:11:04.042Z,50.38
2019-04-25T19:13:51.965Z,50.62
2019-04-25T19:16:40.903Z,51.19
2019-04-25T19:19:29.132Z,50.70
2019-04-25T19:22:16.611Z,51.08
2019-04-25T19:25:04.690Z,50.90
2019-04-25T19:27:52.645Z,51.10
2019-04-25T19:30:41.057Z,51.83
2019-04-25T19:33:35.661Z,52.27
2019-04-25T19:36:19.326Z,52.76
2019-04-25T19:39:07.709Z,53.32
2019-04-25T19:42:21.122Z,52.43
2019-04-25T19:45:09.808Z,52.96
2019-04-25T19:47:57.529Z,53.02
2019-04-25T19:50:45.945Z,53.23
2019-04-25T19:53:33.568Z,53.16
2019-04-25T19:56:21.520Z,53.25
2019-04-25T19:59:09.634Z,53.37
2019-04-25T20:02:00.168Z,53.17
2019-04-25T20:04:55.559Z,53.82
2019-04-25T20:07:57.364Z,52.90
2019-04-25T20:10:51.421Z,53.28
2019-04-25T20:13:38.897Z,52.80
2019-04-25T20:16:28.713Z,52.65
2019-04-25T20:19:16.408Z,51.82
2019-04-25T20:22:05.013Z,51.40
2019-04-25T20:24:53.126Z,51.45
2019-04-25T20:27:41.114Z,50.93
2019-04-25T20:30:28.287Z,51.24
2019-04-25T20:33:16.061Z,51.60
2019-04-25T20:36:04.058Z,51.55
2019-04-25T20:38:53.138Z,51.80
2019-04-25T20:41:41.094Z,51.80
2019-04-25T20:44:28.805Z,51.90
2019-04-25T20:47:16.459Z,52.01
2019-04-25T20:50:05.007Z,52.80
2019-04-25T20:52:52.848Z,52.85
2019-04-25T20:55:40.901Z,52.36
2019-04-25T20:58:28.677Z,51.99
2019-04-25T21:01:16.592Z,52.11
2019-04-25T21:04:13.025Z,52.34
2019-04-25T21:06:54.733Z,52.43
2019-04-25T21:09:42.624Z,52.39
2019-04-25T21:12:31.467Z,52.66
2019-04-25T21:15:33.353Z,52.37
2019-04-25T21:18:43.112Z,52.61
2019-04-25T21:21:31.331Z,52.78
2019-04-25T21:24:19.265Z,52.71
2019-04-25T21:27:06.928Z,52.59
2019-04-25T21:29:55.556Z,52.39
2019-04-25T21:32:53.760Z,52.46
2019-04-25T21:35:41.964Z,52.48
2019-04-25T21:38:29.484Z,52.98
2019-04-25T21:41:54.411Z,52.90
2019-04-25T21:44:42.182Z,53.03
2019-04-25T21:47:31.270Z,53.29
2019-04-25T21:50:19.350Z,52.79
2019-04-25T21:53:07.128Z,52.40
2019-04-25T21:55:55.294Z,52.85
2019-04-25T21:58:43.061Z,52.72
2019-04-25T22:01:36.783Z,52.96
2019-04-25T22:04:24.368Z,53.01
2019-04-25T22:07:12.391Z,52.82
2019-04-25T22:10:00.344Z,52.67
2019-04-25T22:12:48.205Z,52.91
2019-04-25T22:15:36.250Z,52.39
2019-04-25T22:18:24.204Z,52.84
2019-04-25T22:21:11.899Z,53.16
2019-04-25T22:24:08.926Z,53.01
2019-04-25T22:26:50.923Z,53.55
2019-04-25T22:29:41.959Z,53.41
2019-04-25T22:32:36.282Z,53.35
2019-04-25T22:35:25.968Z,53.74
2019-04-25T22:38:13.574Z,53.54
2019-04-25T22:41:01.597Z,53.50
2019-04-25T22:43:53.406Z,53.77
2019-04-25T22:46:44.402Z,53.50
2019-04-25T22:49:31.603Z,53.45
2019-04-25T22:52:19.336Z,53.31
2019-04-25T22:55:08.258Z,53.22
2019-04-25T22:57:55.952Z,53.62
2019-04-25T23:00:43.885Z,53.82
2019-04-25T23:03:37.536Z,53.35
2019-04-25T23:06:24.924Z,53.52
2019-04-25T23:09:12.288Z,53.98
2019-04-25T23:11:59.907Z,54.17
2019-04-25T23:14:47.694Z,54.18
2019-04-25T23:17:35.512Z,53.92
2019-04-25T23:20:23.801Z,53.89
2019-04-25T23:23:11.949Z,53.81
2019-04-25T23:26:07.934Z,53.88
2019-04-25T23:28:57.798Z,54.13
2019-04-25T23:31:45.588Z,53.86
2019-04-25T23:34:33.680Z,54.33
2019-04-25T23:37:21.344Z,53.90
2019-04-25T23:40:09.547Z,53.61
2019-04-25T23:42:56.952Z,54.17
2019-04-25T23:45:44.744Z,53.96
2019-04-25T23:48:32.565Z,53.71
2019-04-25T23:51:20.600Z,54.11
2019-04-25T23:54:08.911Z,54.11
2019-04-25T23:56:56.710Z,54.02
2019-04-25T23:59:44.714Z,54.36
